createdAt,value
2022-11-12T00:00:55.544Z,63.06
2022-11-12T00:02:17.160Z,63.20
2022-11-12T00:03:39.073Z,63.29
2022-11-12T00:05:00.822Z,63.60
2022-11-12T00:06:22.406Z,63.07
2022-11-12T00:07:44.120Z,63.49
2022-11-12T00:09:05.738Z,63.66
2022-11-12T00:10:28.043Z,63.44
2022-11-12T00:11:50.039Z,63.56
2022-11-12T00:13:11.965Z,64.07
2022-11-12T00:14:33.768Z,63.47
2022-11-12T00:15:55.489Z,63.81
2022-11-12T00:17:17.330Z,63.90
2022-11-12T00:18:38.826Z,63.98
2022-11-12T00:20:00.646Z,63.76
2022-11-12T00:21:22.168Z,63.29
2022-11-12T00:22:43.883Z,63.76
2022-11-12T00:24:05.624Z,63.28
2022-11-12T00:25:27.072Z,63.45
2022-11-12T00:26:48.658Z,63.89
2022-11-12T00:28:11.385Z,63.43
2022-11-12T00:29:33.222Z,63.57
2022-11-12T00:30:54.887Z,63.27
2022-11-12T00:32:16.623Z,63.93
2022-11-12T00:33:43.422Z,63.68
2022-11-12T00:35:08.694Z,63.40
2022-11-12T00:36:32.903Z,63.40
2022-11-12T00:37:57.888Z,63.65
2022-11-12T00:39:19.510Z,63.41
2022-11-12T00:40:42.236Z,63.29
2022-11-12T00:42:04.260Z,63.80
2022-11-12T00:43:26.006Z,63.38
2022-11-12T00:44:47.580Z,63.73
2022-11-12T00:46:08.923Z,63.34
2022-11-12T00:47:30.427Z,63.84
2022-11-12T00:48:51.852Z,63.91
2022-11-12T00:50:13.400Z,63.61
2022-11-12T00:51:35.607Z,63.78
2022-11-12T00:52:57.331Z,63.39
2022-11-12T00:54:18.690Z,63.82
2022-11-12T00:55:40.192Z,63.86
2022-11-12T00:57:01.892Z,63.38
2022-11-12T00:58:23.860Z,63.83
2022-11-12T00:59:45.760Z,64.28
2022-11-12T01:01:15.223Z,63.71
2022-11-12T01:02:42.373Z,63.43
2022-11-12T01:04:05.416Z,64.65
2022-11-12T01:05:26.775Z,64.34
2022-11-12T01:06:48.176Z,64.65
2022-11-12T01:08:09.986Z,64.85
2022-11-12T01:09:31.698Z,64.65
2022-11-12T01:10:52.913Z,64.61
2022-11-12T01:12:14.324Z,64.96
2022-11-12T01:13:38.852Z,65.05
2022-11-12T01:15:06.928Z,64.83
2022-11-12T01:16:34.755Z,64.99
2022-11-12T01:17:56.479Z,65.00
2022-11-12T01:19:18.558Z,65.20
2022-11-12T01:20:40.209Z,64.81
2022-11-12T01:22:01.479Z,65.06
2022-11-12T01:23:23.060Z,65.17
2022-11-12T01:24:44.528Z,64.99
2022-11-12T01:26:13.139Z,65.26
2022-11-12T01:27:34.855Z,65.05
2022-11-12T01:28:57.392Z,65.06
2022-11-12T01:30:19.083Z,64.81
2022-11-12T01:31:40.685Z,65.07
2022-11-12T01:33:02.155Z,65.07
2022-11-12T01:34:23.716Z,65.19
2022-11-12T01:35:45.467Z,64.85
2022-11-12T01:37:06.988Z,65.10
2022-11-12T01:38:28.984Z,65.24
2022-11-12T01:39:50.607Z,64.78
2022-11-12T01:41:34.513Z,65.25
2022-11-12T01:42:56.076Z,64.88
2022-11-12T01:44:25.171Z,65.22
2022-11-12T01:45:51.056Z,65.20
2022-11-12T01:47:22.600Z,65.12
2022-11-12T01:48:59.855Z,64.89
2022-11-12T01:50:30.794Z,65.28
2022-11-12T01:51:56.508Z,65.44
2022-11-12T01:53:19.285Z,65.21
2022-11-12T01:54:42.511Z,65.08
2022-11-12T01:56:05.768Z,65.63
2022-11-12T01:57:36.345Z,65.03
2022-11-12T01:59:12.103Z,65.05
2022-11-12T02:00:33.561Z,65.71
2022-11-12T02:01:55.012Z,65.23
2022-11-12T02:03:21.850Z,65.04
2022-11-12T02:04:43.567Z,65.40
2022-11-12T02:06:13.619Z,65.22
2022-11-12T02:07:39.019Z,65.70
2022-11-12T02:09:01.034Z,65.39
2022-11-12T02:10:23.010Z,65.41
2022-11-12T02:11:44.539Z,65.80
2022-11-12T02:13:24.566Z,65.44
2022-11-12T02:14:46.422Z,65.50
2022-11-12T02:16:10.598Z,65.67
2022-11-12T02:17:32.191Z,65.63
2022-11-12T02:18:53.812Z,65.80
2022-11-12T02:20:16.531Z,65.81
2022-11-12T02:21:39.258Z,65.62
2022-11-12T02:23:00.877Z,65.74
2022-11-12T02:24:21.973Z,65.67
2022-11-12T02:25:43.485Z,65.88
2022-11-12T02:27:06.882Z,65.88
2022-11-12T02:28:31.213Z,66.00
2022-11-12T02:29:52.621Z,65.84
2022-11-12T02:31:14.139Z,65.98
2022-11-12T02:32:35.638Z,66.04
2022-11-12T02:33:57.494Z,65.75
2022-11-12T02:35:18.761Z,65.96
2022-11-12T02:36:40.534Z,66.00
2022-11-12T02:38:02.563Z,65.82
2022-11-12T02:39:23.968Z,66.00
2022-11-12T02:40:45.534Z,65.80
2022-11-12T02:42:07.563Z,65.81
2022-11-12T02:43:29.502Z,65.71
2022-11-12T02:44:51.242Z,66.01
2022-11-12T02:46:13.244Z,65.58
2022-11-12T02:47:34.809Z,65.93
2022-11-12T02:48:56.520Z,65.42
2022-11-12T02:50:18.746Z,65.79
2022-11-12T02:51:40.249Z,65.72
2022-11-12T02:53:01.603Z,65.62
2022-11-12T02:54:23.191Z,65.72
2022-11-12T02:55:44.778Z,65.63
2022-11-12T02:57:06.206Z,65.40
2022-11-12T02:58:29.374Z,65.56
2022-11-12T02:59:52.181Z,65.37
2022-11-12T03:01:13.720Z,65.65
2022-11-12T03:02:35.401Z,65.53
2022-11-12T03:03:57.271Z,65.40
2022-11-12T03:05:19.205Z,65.22
2022-11-12T03:06:41.006Z,65.11
2022-11-12T03:08:07.549Z,65.15
2022-11-12T03:09:29.001Z,65.47
2022-11-12T03:10:50.957Z,65.47
2022-11-12T03:12:12.458Z,65.22
2022-11-12T03:13:34.122Z,65.35
2022-11-12T03:14:55.614Z,64.94
2022-11-12T03:16:17.343Z,65.09
2022-11-12T03:17:39.001Z,65.14
2022-11-12T03:19:00.204Z,64.98
2022-11-12T03:20:21.617Z,65.09
2022-11-12T03:21:43.122Z,65.37
2022-11-12T03:23:11.014Z,65.19
2022-11-12T03:24:32.878Z,65.07
2022-11-12T03:25:54.343Z,65.07
2022-11-12T03:27:17.112Z,64.98
2022-11-12T03:28:38.778Z,64.76
2022-11-12T03:30:00.436Z,64.72
2022-11-12T03:31:21.716Z,64.69
2022-11-12T03:32:43.070Z,64.90
2022-11-12T03:34:04.660Z,65.06
2022-11-12T03:35:26.898Z,64.45
2022-11-12T03:36:48.531Z,64.92
2022-11-12T03:38:10.132Z,64.68
2022-11-12T03:39:31.556Z,64.86
2022-11-12T03:40:53.519Z,64.40
2022-11-12T03:42:14.842Z,64.70
2022-11-12T03:43:36.414Z,64.59
2022-11-12T03:44:57.993Z,64.42
2022-11-12T03:46:19.194Z,64.55
2022-11-12T03:47:47.346Z,64.53
2022-11-12T03:49:08.664Z,64.65
2022-11-12T03:50:30.715Z,64.60
2022-11-12T03:51:52.277Z,64.71
2022-11-12T03:53:13.890Z,64.71
2022-11-12T03:54:35.280Z,64.60
2022-11-12T03:55:56.989Z,64.55
2022-11-12T03:57:18.831Z,64.62
2022-11-12T03:58:40.396Z,64.62
2022-11-12T04:00:02.060Z,64.39
2022-11-12T04:01:23.753Z,64.37
2022-11-12T04:02:45.525Z,64.19
2022-11-12T04:04:07.169Z,64.27
2022-11-12T04:05:47.641Z,64.57
2022-11-12T04:07:28.034Z,64.56
2022-11-12T04:08:49.410Z,64.23
2022-11-12T04:10:11.122Z,64.58
2022-11-12T04:11:32.596Z,64.47
2022-11-12T04:13:12.847Z,64.43
2022-11-12T04:14:34.692Z,64.61
2022-11-12T04:16:30.253Z,64.47
2022-11-12T04:18:10.169Z,64.54
2022-11-12T04:19:50.291Z,64.74
2022-11-12T04:21:33.769Z,64.51
2022-11-12T04:22:55.715Z,64.43
2022-11-12T04:24:55.197Z,64.52
2022-11-12T04:26:25.671Z,64.36
2022-11-12T04:27:47.037Z,64.42
2022-11-12T04:29:27.636Z,64.23
2022-11-12T04:30:49.401Z,64.52
2022-11-12T04:32:10.999Z,63.84
2022-11-12T04:33:32.873Z,64.40
2022-11-12T04:34:54.693Z,64.01
2022-11-12T04:36:16.346Z,64.30
2022-11-12T04:37:47.093Z,64.56
2022-11-12T04:39:08.730Z,64.35
2022-11-12T04:40:49.293Z,64.55
2022-11-12T04:42:30.452Z,64.19
2022-11-12T04:44:10.721Z,64.42
2022-11-12T04:45:31.947Z,64.09
2022-11-12T04:46:53.703Z,64.35
2022-11-12T04:48:15.607Z,64.19
2022-11-12T04:49:37.016Z,64.56
2022-11-12T04:51:28.746Z,64.69
2022-11-12T04:52:50.420Z,64.59
2022-11-12T04:54:12.167Z,64.40
2022-11-12T04:55:33.750Z,64.35
2022-11-12T04:56:55.225Z,64.05
2022-11-12T04:58:16.655Z,64.14
2022-11-12T04:59:38.151Z,64.06
2022-11-12T05:00:59.641Z,64.13
2022-11-12T05:02:21.708Z,64.39
2022-11-12T05:03:43.359Z,64.06
2022-11-12T05:05:05.267Z,63.77
2022-11-12T05:06:45.621Z,64.06
2022-11-12T05:08:07.063Z,64.05
2022-11-12T05:09:29.772Z,64.03
2022-11-12T05:10:51.351Z,64.22
2022-11-12T05:12:13.149Z,63.90
2022-11-12T05:13:34.341Z,64.00
2022-11-12T05:14:55.969Z,63.88
2022-11-12T05:16:17.799Z,64.25
2022-11-12T05:17:46.183Z,64.48
2022-11-12T05:19:07.877Z,64.08
2022-11-12T05:20:29.544Z,64.15
2022-11-12T05:22:06.391Z,64.51
2022-11-12T05:23:27.665Z,64.64
2022-11-12T05:24:49.272Z,64.70
2022-11-12T05:26:11.069Z,64.83
2022-11-12T05:27:32.837Z,64.62
2022-11-12T05:28:54.850Z,64.97
2022-11-12T05:30:16.562Z,65.04
2022-11-12T05:31:38.214Z,64.99
2022-11-12T05:32:59.462Z,64.74
2022-11-12T05:34:23.047Z,64.83
2022-11-12T05:35:44.645Z,64.79
2022-11-12T05:37:08.116Z,64.96
2022-11-12T05:38:29.674Z,64.81
2022-11-12T05:39:51.604Z,64.46
2022-11-12T05:41:17.289Z,64.33
2022-11-12T05:42:41.392Z,64.60
2022-11-12T05:44:03.388Z,64.21
2022-11-12T05:45:24.676Z,64.25
2022-11-12T05:46:46.921Z,64.35
2022-11-12T05:48:08.406Z,64.41
2022-11-12T05:49:30.277Z,63.75
2022-11-12T05:52:37.757Z,63.64
2022-11-12T05:53:59.572Z,63.70
2022-11-12T05:55:20.948Z,63.58
2022-11-12T05:56:42.830Z,63.52
2022-11-12T05:58:07.737Z,63.56
2022-11-12T05:59:29.046Z,63.79
2022-11-12T06:00:50.634Z,63.63
2022-11-12T06:02:12.342Z,63.82
2022-11-12T06:03:34.299Z,63.05
2022-11-12T06:04:56.001Z,62.75
2022-11-12T06:06:17.751Z,63.09
2022-11-12T06:07:39.367Z,63.36
2022-11-12T06:09:00.922Z,63.68
2022-11-12T06:10:22.370Z,63.54
2022-11-12T06:11:43.886Z,63.54
2022-11-12T06:13:05.780Z,64.36
2022-11-12T06:14:27.166Z,64.85
2022-11-12T06:15:48.575Z,64.79
2022-11-12T06:17:10.256Z,64.48
2022-11-12T06:18:32.272Z,64.40
2022-11-12T06:19:54.054Z,64.63
2022-11-12T06:21:24.732Z,64.29
2022-11-12T06:22:46.375Z,63.57
2022-11-12T06:24:08.381Z,63.29
2022-11-12T06:25:30.243Z,62.89
2022-11-12T06:26:51.748Z,62.95
2022-11-12T06:28:13.118Z,62.69
2022-11-12T06:29:34.849Z,62.52
2022-11-12T06:30:56.753Z,62.61
2022-11-12T06:32:18.443Z,62.27
2022-11-12T06:33:39.828Z,62.50
2022-11-12T06:35:02.148Z,62.74
2022-11-12T06:36:23.450Z,62.18
2022-11-12T06:37:49.373Z,62.25
2022-11-12T06:39:11.735Z,62.05
2022-11-12T06:40:33.089Z,62.39
2022-11-12T06:41:55.061Z,62.57
2022-11-12T06:43:17.148Z,62.71
2022-11-12T06:44:38.495Z,62.58
2022-11-12T06:46:15.447Z,62.61
2022-11-12T06:47:36.967Z,62.29
2022-11-12T06:48:58.363Z,62.34
2022-11-12T06:50:20.148Z,62.79
2022-11-12T06:51:42.243Z,62.75
2022-11-12T06:53:03.932Z,63.37
2022-11-12T06:54:26.601Z,63.39
2022-11-12T06:55:48.192Z,63.63
2022-11-12T06:57:10.416Z,63.73
2022-11-12T06:58:32.671Z,63.77
2022-11-12T06:59:55.686Z,63.57
2022-11-12T07:01:18.505Z,63.77
2022-11-12T07:02:40.249Z,64.05
2022-11-12T07:04:03.123Z,63.68
2022-11-12T07:05:24.710Z,63.80
2022-11-12T07:06:46.231Z,63.74
2022-11-12T07:08:08.215Z,64.07
2022-11-12T07:09:29.651Z,64.04
2022-11-12T07:10:59.951Z,63.55
2022-11-12T07:12:21.496Z,63.55
2022-11-12T07:13:47.098Z,63.59
2022-11-12T07:15:09.461Z,63.34
2022-11-12T07:16:31.196Z,63.19
2022-11-12T07:17:52.997Z,63.29
2022-11-12T07:19:14.381Z,63.06
2022-11-12T07:20:35.734Z,62.72
2022-11-12T07:21:57.062Z,63.29
2022-11-12T07:23:18.447Z,63.12
2022-11-12T07:24:39.886Z,63.14
2022-11-12T07:26:06.628Z,63.14
2022-11-12T07:27:31.111Z,63.17
2022-11-12T07:28:53.483Z,62.85
2022-11-12T07:30:15.707Z,63.22
2022-11-12T07:31:37.076Z,63.21
2022-11-12T07:32:58.940Z,63.14
2022-11-12T07:34:20.432Z,63.07
2022-11-12T07:35:42.218Z,63.34
2022-11-12T07:37:04.027Z,62.82
2022-11-12T07:38:25.829Z,62.84
2022-11-12T07:39:47.617Z,62.87
2022-11-12T07:41:22.388Z,62.66
2022-11-12T07:42:44.098Z,62.62
2022-11-12T07:44:05.771Z,62.50
2022-11-12T07:45:27.172Z,62.65
2022-11-12T07:46:48.504Z,62.63
2022-11-12T07:48:10.049Z,62.15
2022-11-12T07:49:31.203Z,62.50
2022-11-12T07:50:52.779Z,61.54
2022-11-12T07:52:14.319Z,62.30
2022-11-12T07:53:35.836Z,62.18
2022-11-12T07:54:57.561Z,61.25
2022-11-12T07:56:23.318Z,61.67
2022-11-12T07:57:45.124Z,61.79
2022-11-12T07:59:08.028Z,62.19
2022-11-12T08:00:29.752Z,62.12
2022-11-12T08:01:51.212Z,61.48
2022-11-12T08:03:12.729Z,61.21
2022-11-12T08:04:34.880Z,60.63
2022-11-12T08:05:56.467Z,60.99
2022-11-12T08:07:18.643Z,61.05
2022-11-12T08:08:40.410Z,61.17
2022-11-12T08:10:01.799Z,61.45
2022-11-12T08:11:24.202Z,61.71
2022-11-12T08:12:45.483Z,61.50
2022-11-12T08:14:07.129Z,61.53
2022-11-12T08:15:28.656Z,61.43
2022-11-12T08:16:50.159Z,61.05
2022-11-12T08:18:11.796Z,60.57
2022-11-12T08:19:33.057Z,60.51
2022-11-12T08:21:04.828Z,60.37
2022-11-12T08:22:26.688Z,60.38
2022-11-12T08:23:48.350Z,60.24
2022-11-12T08:25:10.276Z,60.51
2022-11-12T08:26:31.399Z,60.55
2022-11-12T08:28:00.644Z,60.79
2022-11-12T08:29:23.491Z,60.51
2022-11-12T08:30:45.213Z,59.84
2022-11-12T08:32:07.124Z,60.06
2022-11-12T08:33:28.856Z,59.69
2022-11-12T08:34:50.499Z,60.28
2022-11-12T08:36:15.144Z,59.86
2022-11-12T08:37:36.835Z,59.57
2022-11-12T08:38:58.248Z,59.90
2022-11-12T08:40:19.868Z,59.71
2022-11-12T08:41:41.623Z,59.26
2022-11-12T08:43:06.703Z,59.31
2022-11-12T08:44:28.037Z,59.61
2022-11-12T08:45:50.244Z,59.35
2022-11-12T08:47:11.988Z,59.94
2022-11-12T08:48:34.556Z,59.68
2022-11-12T08:49:56.195Z,59.77
2022-11-12T08:51:17.695Z,59.52
2022-11-12T08:52:39.053Z,59.61
2022-11-12T08:54:00.882Z,59.31
2022-11-12T08:55:22.442Z,59.43
2022-11-12T08:56:43.840Z,59.60
2022-11-12T08:58:05.796Z,58.98
2022-11-12T08:59:27.495Z,59.13
2022-11-12T09:00:50.954Z,59.67
2022-11-12T09:02:14.170Z,59.02
2022-11-12T09:03:35.502Z,59.58
2022-11-12T09:04:56.825Z,59.28
2022-11-12T09:06:18.552Z,59.46
2022-11-12T09:07:55.562Z,59.41
2022-11-12T09:09:17.166Z,59.56
2022-11-12T09:10:39.772Z,59.53
2022-11-12T09:12:06.196Z,59.43
2022-11-12T09:13:32.205Z,59.78
2022-11-12T09:14:59.565Z,59.84
2022-11-12T09:16:31.056Z,59.70
2022-11-12T09:18:02.296Z,59.66
2022-11-12T09:19:23.891Z,60.08
2022-11-12T09:20:45.912Z,59.99
2022-11-12T09:22:07.772Z,60.11
2022-11-12T09:23:29.844Z,60.14
2022-11-12T09:24:51.040Z,60.04
2022-11-12T09:26:12.519Z,60.16
2022-11-12T09:27:34.005Z,60.18
2022-11-12T09:28:55.349Z,60.45
2022-11-12T09:30:17.275Z,60.00
2022-11-12T09:31:38.509Z,60.11
2022-11-12T09:32:59.940Z,60.18
2022-11-12T09:34:21.525Z,60.31
2022-11-12T09:35:43.841Z,60.06
2022-11-12T09:37:05.232Z,60.34
2022-11-12T09:38:27.145Z,60.82
2022-11-12T09:39:49.065Z,60.37
2022-11-12T09:41:18.650Z,60.51
2022-11-12T09:42:41.729Z,60.14
2022-11-12T09:44:11.266Z,60.10
2022-11-12T09:45:33.424Z,59.58
2022-11-12T09:47:02.876Z,59.65
2022-11-12T09:48:41.864Z,59.67
2022-11-12T09:50:16.274Z,59.49
2022-11-12T09:51:51.640Z,59.22
2022-11-12T09:53:59.389Z,59.20
2022-11-12T09:55:34.047Z,58.69
2022-11-12T09:56:55.377Z,58.57
2022-11-12T09:58:19.684Z,58.25
2022-11-12T09:59:43.050Z,57.79
2022-11-12T10:01:18.429Z,57.93
2022-11-12T10:03:14.543Z,57.23
2022-11-12T10:05:05.356Z,57.62
2022-11-12T10:06:39.909Z,57.84
2022-11-12T10:08:26.190Z,58.61
2022-11-12T10:10:17.943Z,58.63
2022-11-12T10:12:32.533Z,59.10
2022-11-12T10:14:23.343Z,59.33
2022-11-12T10:16:32.444Z,59.92
2022-11-12T10:18:28.582Z,59.87
2022-11-12T10:20:19.242Z,60.31
2022-11-12T10:22:04.751Z,60.68
2022-11-12T10:23:36.788Z,60.70
2022-11-12T10:25:11.381Z,60.05
2022-11-12T10:26:34.343Z,59.88
2022-11-12T10:27:56.811Z,60.02
2022-11-12T10:29:27.589Z,59.51
2022-11-12T10:30:49.351Z,59.63
2022-11-12T10:32:15.944Z,59.65
2022-11-12T10:33:37.324Z,59.46
2022-11-12T10:34:58.978Z,59.76
2022-11-12T10:36:33.865Z,59.50
2022-11-12T10:38:06.050Z,59.39
2022-11-12T10:39:39.257Z,59.05
2022-11-12T10:41:27.018Z,59.64
2022-11-12T10:43:03.116Z,59.82
2022-11-12T10:44:27.817Z,59.41
2022-11-12T10:45:51.166Z,59.53
2022-11-12T10:47:43.065Z,59.75
2022-11-12T10:49:16.985Z,59.31
2022-11-12T10:50:43.298Z,59.41
2022-11-12T10:52:04.988Z,59.36
2022-11-12T10:53:37.931Z,59.27
2022-11-12T10:55:18.036Z,59.05
2022-11-12T10:56:39.916Z,58.74
2022-11-12T10:58:11.561Z,58.75
2022-11-12T10:59:33.768Z,58.98
2022-11-12T11:01:12.269Z,58.46
2022-11-12T11:02:33.919Z,58.16
2022-11-12T11:03:58.233Z,58.43
2022-11-12T11:05:37.460Z,58.64
2022-11-12T11:07:23.206Z,58.93
2022-11-12T11:08:49.445Z,58.87
2022-11-12T11:10:32.098Z,58.40
2022-11-12T11:11:54.348Z,58.38
2022-11-12T11:13:26.179Z,58.51
2022-11-12T11:14:49.322Z,58.65
2022-11-12T11:16:21.094Z,58.61
2022-11-12T11:17:42.823Z,58.48
2022-11-12T11:19:06.429Z,58.45
2022-11-12T11:20:47.620Z,58.74
2022-11-12T11:22:38.321Z,58.84
2022-11-12T11:24:21.591Z,58.83
2022-11-12T11:25:43.772Z,58.31
2022-11-12T11:27:34.250Z,58.82
2022-11-12T11:29:17.019Z,58.66
2022-11-12T11:30:54.561Z,58.96
2022-11-12T11:32:52.614Z,59.27
2022-11-12T11:34:35.579Z,58.90
2022-11-12T11:36:44.310Z,58.78
2022-11-12T11:38:49.620Z,58.42
2022-11-12T11:40:29.102Z,58.67
2022-11-12T11:42:07.442Z,58.60
2022-11-12T11:44:22.202Z,59.02
2022-11-12T11:45:59.724Z,58.71
2022-11-12T11:47:38.620Z,59.28
2022-11-12T11:49:47.360Z,59.03
2022-11-12T11:51:36.092Z,58.99
2022-11-12T11:53:26.635Z,58.84
2022-11-12T11:55:36.429Z,59.12
2022-11-12T11:57:04.056Z,58.87
2022-11-12T11:58:44.391Z,58.99
2022-11-12T12:00:23.841Z,58.96
2022-11-12T12:02:11.222Z,58.89
2022-11-12T12:03:57.924Z,59.09
2022-11-12T12:05:55.586Z,59.21
2022-11-12T12:08:22.092Z,59.09
2022-11-12T12:09:58.904Z,58.55
2022-11-12T12:11:20.057Z,59.00
2022-11-12T12:13:09.585Z,59.11
2022-11-12T12:14:43.389Z,58.73
2022-11-12T12:16:07.810Z,59.00
2022-11-12T12:17:53.864Z,59.39
2022-11-12T12:19:27.384Z,58.97
2022-11-12T12:20:59.346Z,58.68
2022-11-12T12:22:35.999Z,58.93
2022-11-12T12:24:21.379Z,59.13
2022-11-12T12:25:46.367Z,59.15
2022-11-12T12:27:32.257Z,59.02
2022-11-12T12:29:12.990Z,59.13
2022-11-12T12:30:41.206Z,58.76
2022-11-12T12:32:24.322Z,58.75
2022-11-12T12:33:56.729Z,58.87
2022-11-12T12:35:52.733Z,58.64
2022-11-12T12:37:35.806Z,58.75
2022-11-12T12:39:25.260Z,58.86
2022-11-12T12:41:04.079Z,58.63
2022-11-12T12:42:49.488Z,59.01
2022-11-12T12:44:11.695Z,58.67
2022-11-12T12:45:46.593Z,58.29
2022-11-12T12:47:13.416Z,58.66
2022-11-12T12:48:41.863Z,58.18
2022-11-12T12:50:13.297Z,58.43
2022-11-12T12:51:35.708Z,58.20
2022-11-12T12:53:06.896Z,58.01
2022-11-12T12:54:42.931Z,58.38
2022-11-12T12:56:32.230Z,58.16
2022-11-12T12:57:59.703Z,58.67
2022-11-12T12:59:24.140Z,58.79
2022-11-12T13:01:22.636Z,58.29
2022-11-12T13:02:45.116Z,58.38
2022-11-12T13:04:10.446Z,58.61
2022-11-12T13:05:37.601Z,58.86
2022-11-12T13:06:59.236Z,58.93
2022-11-12T13:08:25.887Z,59.27
2022-11-12T13:09:48.581Z,59.08
2022-11-12T13:11:10.336Z,58.98
2022-11-12T13:13:02.853Z,59.40
2022-11-12T13:14:36.699Z,59.53
2022-11-12T13:15:59.822Z,59.13
2022-11-12T13:17:49.587Z,59.47
2022-11-12T13:19:11.177Z,59.69
2022-11-12T13:20:39.782Z,59.79
2022-11-12T13:22:19.816Z,59.89
2022-11-12T13:24:09.078Z,59.83
2022-11-12T13:25:32.351Z,59.74
2022-11-12T13:26:57.214Z,60.15
2022-11-12T13:28:18.869Z,59.93
2022-11-12T13:29:42.359Z,60.19
2022-11-12T13:31:28.547Z,60.30
2022-11-12T13:32:52.380Z,59.90
2022-11-12T13:34:32.780Z,60.02
2022-11-12T13:36:25.056Z,60.27
2022-11-12T13:37:54.587Z,60.25
2022-11-12T13:39:20.275Z,60.38
2022-11-12T13:40:57.945Z,60.56
2022-11-12T13:42:38.280Z,60.00
2022-11-12T13:44:03.889Z,60.47
2022-11-12T13:45:27.849Z,60.89
2022-11-12T13:46:52.640Z,60.75
2022-11-12T13:48:26.459Z,60.84
2022-11-12T13:49:49.033Z,60.81
2022-11-12T13:51:35.104Z,60.78
2022-11-12T13:52:56.978Z,60.95
2022-11-12T13:54:44.777Z,60.97
2022-11-12T13:56:06.762Z,60.87
2022-11-12T13:57:33.131Z,61.40
2022-11-12T13:58:55.980Z,61.60
2022-11-12T14:00:30.130Z,61.53
2022-11-12T14:01:52.493Z,61.59
2022-11-12T14:03:19.058Z,61.20
2022-11-12T14:04:40.649Z,61.41
2022-11-12T14:06:15.448Z,61.04
2022-11-12T14:08:18.151Z,61.13
2022-11-12T14:10:09.423Z,61.79
2022-11-12T14:11:54.463Z,61.55
2022-11-12T14:13:36.657Z,61.81
2022-11-12T14:15:26.443Z,61.79
2022-11-12T14:17:43.800Z,61.84
2022-11-12T14:19:45.016Z,61.93
2022-11-12T14:21:10.963Z,61.85
2022-11-12T14:22:44.488Z,61.70
2022-11-12T14:24:11.115Z,62.08
2022-11-12T14:25:33.016Z,62.05
2022-11-12T14:26:54.274Z,62.14
2022-11-12T14:28:33.717Z,61.68
2022-11-12T14:30:24.401Z,61.90
2022-11-12T14:31:46.832Z,61.63
2022-11-12T14:33:10.917Z,61.89
2022-11-12T14:34:34.402Z,61.98
2022-11-12T14:36:13.741Z,61.98
2022-11-12T14:37:43.313Z,61.97
2022-11-12T14:39:06.501Z,61.88
2022-11-12T14:40:35.608Z,61.96
2022-11-12T14:42:00.048Z,61.82
2022-11-12T14:43:42.275Z,62.15
2022-11-12T14:45:03.885Z,62.16
2022-11-12T14:46:44.125Z,62.10
2022-11-12T14:48:09.678Z,61.88
2022-11-12T14:49:45.066Z,62.28
2022-11-12T14:51:11.147Z,62.15
2022-11-12T14:52:42.031Z,62.22
2022-11-12T14:54:08.668Z,61.89
2022-11-12T14:55:36.922Z,62.21
2022-11-12T14:57:01.283Z,62.10
2022-11-12T14:58:24.605Z,62.27
2022-11-12T14:59:46.396Z,62.37
2022-11-12T15:03:31.213Z,62.27
2022-11-12T15:05:04.899Z,62.33
2022-11-12T15:06:32.584Z,62.71
2022-11-12T15:08:06.026Z,62.70
2022-11-12T15:09:37.687Z,62.79
2022-11-12T15:11:21.442Z,62.52
2022-11-12T15:12:43.323Z,62.64
2022-11-12T15:14:04.642Z,62.69
2022-11-12T15:15:26.072Z,62.48
2022-11-12T15:16:47.923Z,62.90
2022-11-12T15:18:22.833Z,62.42
2022-11-12T15:19:44.427Z,62.44
2022-11-12T15:21:12.084Z,62.25
2022-11-12T15:22:34.649Z,62.34
2022-11-12T15:24:20.621Z,61.94
2022-11-12T15:25:42.832Z,62.51
2022-11-12T15:27:38.148Z,62.24
2022-11-12T15:29:31.696Z,62.54
2022-11-12T15:31:16.607Z,62.18
2022-11-12T15:32:38.143Z,62.46
2022-11-12T15:34:52.107Z,62.09
2022-11-12T15:36:20.624Z,62.16
2022-11-12T15:37:43.562Z,62.43
2022-11-12T15:39:14.418Z,62.27
2022-11-12T15:40:43.594Z,62.37
2022-11-12T15:42:17.771Z,62.59
2022-11-12T15:43:42.946Z,62.65
2022-11-12T15:45:19.989Z,62.53
2022-11-12T15:46:48.048Z,62.73
2022-11-12T15:48:12.649Z,62.38
2022-11-12T15:49:35.225Z,62.35
2022-11-12T15:50:57.055Z,62.46
2022-11-12T15:52:19.944Z,62.67
2022-11-12T15:53:41.629Z,62.79
2022-11-12T15:55:03.375Z,62.45
2022-11-12T15:56:24.849Z,62.41
2022-11-12T15:57:52.232Z,62.42
2022-11-12T15:59:17.467Z,62.38
2022-11-12T16:00:39.673Z,62.75
2022-11-12T16:02:01.122Z,62.30
2022-11-12T16:03:22.980Z,62.34
2022-11-12T16:04:44.708Z,62.45
2022-11-12T16:06:09.343Z,62.37
2022-11-12T16:07:31.339Z,62.49
2022-11-12T16:08:53.013Z,62.42
2022-11-12T16:10:17.548Z,62.38
2022-11-12T16:11:39.002Z,62.76
2022-11-12T16:13:04.180Z,62.25
2022-11-12T16:14:26.544Z,61.98
2022-11-12T16:15:51.569Z,62.26
2022-11-12T16:17:18.568Z,62.07
2022-11-12T16:18:39.712Z,62.43
2022-11-12T16:20:01.470Z,62.40
2022-11-12T16:21:23.225Z,62.36
2022-11-12T16:22:45.051Z,62.10
2022-11-12T16:24:07.405Z,62.04
2022-11-12T16:25:32.596Z,62.01
2022-11-12T16:26:57.670Z,62.06
2022-11-12T16:28:19.831Z,61.92
2022-11-12T16:29:41.725Z,62.04
2022-11-12T16:31:03.302Z,62.18
2022-11-12T16:32:24.900Z,62.06
2022-11-12T16:33:46.261Z,62.01
2022-11-12T16:35:08.185Z,62.25
2022-11-12T16:36:29.625Z,62.06
2022-11-12T16:37:54.661Z,61.61
2022-11-12T16:39:16.367Z,61.41
2022-11-12T16:40:38.333Z,61.80
2022-11-12T16:42:00.038Z,61.94
2022-11-12T16:43:21.611Z,61.72
2022-11-12T16:44:43.162Z,61.46
2022-11-12T16:46:29.160Z,61.94
2022-11-12T16:47:55.975Z,62.11
2022-11-12T16:49:17.736Z,62.27
2022-11-12T16:50:39.648Z,62.21
2022-11-12T16:52:01.039Z,61.71
2022-11-12T16:53:22.357Z,62.05
2022-11-12T16:54:44.080Z,62.05
2022-11-12T16:56:12.739Z,62.14
2022-11-12T16:57:34.504Z,61.98
2022-11-12T16:58:56.240Z,61.95
2022-11-12T17:00:19.541Z,62.22
2022-11-12T17:01:41.110Z,61.92
2022-11-12T17:03:02.675Z,62.24
2022-11-12T17:04:25.078Z,62.29
2022-11-12T17:05:52.664Z,62.02
2022-11-12T17:07:14.436Z,62.08
2022-11-12T17:08:36.314Z,61.91
2022-11-12T17:09:57.945Z,62.04
2022-11-12T17:11:19.347Z,61.82
2022-11-12T17:12:40.874Z,61.92
2022-11-12T17:14:02.868Z,61.91
2022-11-12T17:15:24.247Z,62.26
2022-11-12T17:16:46.451Z,62.25
2022-11-12T17:18:08.553Z,62.33
2022-11-12T17:19:30.165Z,61.97
2022-11-12T17:20:51.781Z,62.08
2022-11-12T17:22:13.196Z,61.82
2022-11-12T17:23:34.942Z,61.80
2022-11-12T17:24:56.216Z,61.92
2022-11-12T17:26:20.572Z,62.22
2022-11-12T17:27:42.358Z,62.33
2022-11-12T17:29:08.077Z,61.93
2022-11-12T17:30:29.947Z,62.09
2022-11-12T17:31:51.572Z,62.03
2022-11-12T17:33:13.083Z,62.12
2022-11-12T17:34:34.961Z,61.96
2022-11-12T17:36:03.668Z,62.20
2022-11-12T17:37:25.510Z,62.46
2022-11-12T17:38:47.049Z,62.20
2022-11-12T17:40:09.270Z,61.90
2022-11-12T17:41:31.113Z,62.13
2022-11-12T17:42:53.874Z,62.28
2022-11-12T17:44:18.377Z,61.92
2022-11-12T17:45:48.510Z,62.04
2022-11-12T17:47:10.028Z,61.94
2022-11-12T17:48:33.205Z,62.12
2022-11-12T17:49:54.637Z,62.10
2022-11-12T17:51:19.802Z,61.94
2022-11-12T17:52:41.384Z,61.91
2022-11-12T17:54:02.960Z,62.35
2022-11-12T17:55:24.331Z,61.87
2022-11-12T17:56:45.541Z,62.63
2022-11-12T17:58:07.004Z,62.27
2022-11-12T17:59:28.307Z,62.30
2022-11-12T18:00:51.821Z,62.34
2022-11-12T18:02:13.555Z,62.92
2022-11-12T18:03:42.035Z,63.06
2022-11-12T18:05:03.781Z,63.00
2022-11-12T18:06:32.703Z,62.87
2022-11-12T18:07:54.572Z,63.28
2022-11-12T18:09:16.295Z,63.14
2022-11-12T18:10:38.096Z,63.07
2022-11-12T18:11:59.834Z,62.94
2022-11-12T18:13:21.842Z,62.75
2022-11-12T18:14:43.376Z,63.07
2022-11-12T18:16:28.514Z,63.08
2022-11-12T18:17:50.285Z,62.56
2022-11-12T18:19:13.635Z,62.61
2022-11-12T18:20:36.916Z,62.57
2022-11-12T18:21:59.749Z,62.53
2022-11-12T18:23:21.348Z,62.61
2022-11-12T18:24:43.057Z,62.76
2022-11-12T18:26:04.619Z,62.36
2022-11-12T18:27:26.346Z,62.89
2022-11-12T18:28:55.389Z,62.52
2022-11-12T18:30:19.539Z,62.90
2022-11-12T18:31:41.499Z,63.28
2022-11-12T18:33:03.233Z,62.54
2022-11-12T18:34:25.068Z,62.77
2022-11-12T18:35:46.727Z,62.82
2022-11-12T18:37:08.818Z,63.19
2022-11-12T18:38:36.057Z,63.04
2022-11-12T18:39:57.807Z,63.16
2022-11-12T18:41:30.217Z,63.23
2022-11-12T18:42:51.695Z,62.96
2022-11-12T18:44:13.290Z,63.05